createdAt,value
2018-08-16T00:02:44.839Z,1011.96
2018-08-16T00:07:40.342Z,1011.91
2018-08-16T00:12:37.492Z,1011.93
2018-08-16T00:17:33.402Z,1011.86
2018-08-16T00:22:29.191Z,1011.85
2018-08-16T00:27:24.856Z,1011.87
2018-08-16T00:32:22.176Z,1011.81
2018-08-16T00:37:17.753Z,1011.78
2018-08-16T00:42:13.961Z,1011.71
2018-08-16T00:47:09.886Z,1011.82
2018-08-16T00:52:05.692Z,1011.88
2018-08-16T00:57:02.564Z,1011.79
2018-08-16T01:01:58.302Z,1011.74
2018-08-16T01:06:54.266Z,1011.68
2018-08-16T01:11:50.600Z,1011.81
2018-08-16T01:16:47.354Z,1011.76
2018-08-16T01:21:42.983Z,1011.74
2018-08-16T01:26:38.972Z,1011.76
2018-08-16T01:31:35.267Z,1011.72
2018-08-16T01:36:31.436Z,1011.75
2018-08-16T01:41:27.313Z,1011.69
2018-08-16T01:46:23.305Z,1011.65
2018-08-16T01:51:18.789Z,1011.69
2018-08-16T01:56:14.765Z,1011.59
2018-08-16T02:01:10.445Z,1011.62
2018-08-16T02:06:05.871Z,1011.64
2018-08-16T02:11:02.576Z,1011.67
2018-08-16T02:15:58.058Z,1011.50
2018-08-16T02:20:53.784Z,1011.58
2018-08-16T02:25:49.440Z,1011.48
2018-08-16T02:30:45.747Z,1011.46
2018-08-16T02:35:41.984Z,1011.55
2018-08-16T02:40:39.237Z,1011.48
2018-08-16T02:45:34.970Z,1011.45
2018-08-16T02:50:30.767Z,1011.34
2018-08-16T02:55:26.580Z,1011.35
2018-08-16T03:00:22.345Z,1011.43
2018-08-16T03:05:17.954Z,1011.28
2018-08-16T03:10:14.736Z,1011.31
2018-08-16T03:15:11.399Z,1011.14
2018-08-16T03:20:07.322Z,1011.16
2018-08-16T03:25:03.118Z,1011.17
2018-08-16T03:29:58.881Z,1011.16
2018-08-16T03:34:54.445Z,1011.14
2018-08-16T03:39:50.802Z,1011.08
2018-08-16T03:44:46.392Z,1011.05
2018-08-16T03:49:43.187Z,1011.00
2018-08-16T03:54:39.415Z,1010.98
2018-08-16T03:59:35.513Z,1010.95
2018-08-16T04:04:31.758Z,1010.90
2018-08-16T04:09:27.673Z,1010.91
2018-08-16T04:14:23.598Z,1010.83
2018-08-16T04:19:19.709Z,1010.88
2018-08-16T04:24:15.420Z,1011.00
2018-08-16T04:29:11.260Z,1010.90
2018-08-16T04:34:07.637Z,1010.91
2018-08-16T04:39:04.107Z,1010.92
2018-08-16T04:43:59.724Z,1011.06
2018-08-16T04:48:55.494Z,1010.94
2018-08-16T04:53:51.302Z,1011.00
2018-08-16T04:58:47.237Z,1010.96
2018-08-16T05:03:44.118Z,1011.00
2018-08-16T05:08:39.907Z,1011.02
2018-08-16T05:13:35.910Z,1011.07
2018-08-16T05:18:31.847Z,1011.02
2018-08-16T05:23:27.999Z,1011.02
2018-08-16T05:28:24.039Z,1011.06
2018-08-16T05:33:20.016Z,1011.07
2018-08-16T05:38:16.578Z,1010.96
2018-08-16T05:43:12.233Z,1010.97
2018-08-16T05:48:08.572Z,1010.97
2018-08-16T05:53:04.563Z,1010.86
2018-08-16T05:58:00.362Z,1010.81
2018-08-16T06:02:56.467Z,1010.91
2018-08-16T06:07:52.879Z,1011.04
2018-08-16T06:12:49.267Z,1010.92
2018-08-16T06:17:45.299Z,1010.85
2018-08-16T06:22:42.383Z,1010.88
2018-08-16T06:27:39.135Z,1010.86
2018-08-16T06:32:35.029Z,1010.85
2018-08-16T06:37:31.529Z,1010.90
2018-08-16T06:42:29.033Z,1010.88
2018-08-16T06:47:25.060Z,1010.82
2018-08-16T06:52:21.096Z,1010.82
2018-08-16T06:57:18.263Z,1010.68
2018-08-16T07:02:14.491Z,1010.73
2018-08-16T07:07:10.483Z,1010.69
2018-08-16T07:12:06.480Z,1010.70
2018-08-16T07:17:02.500Z,1010.72
2018-08-16T07:21:59.403Z,1010.63
2018-08-16T07:26:54.918Z,1010.69
2018-08-16T07:31:51.904Z,1010.70
2018-08-16T07:36:47.538Z,1010.56
2018-08-16T07:41:43.885Z,1010.59
2018-08-16T07:46:41.625Z,1010.63
2018-08-16T07:51:39.819Z,1010.50
2018-08-16T07:56:36.369Z,1010.51
2018-08-16T08:01:32.522Z,1010.41
2018-08-16T08:06:29.539Z,1010.44
2018-08-16T08:11:27.077Z,1010.49
2018-08-16T08:16:24.012Z,1010.47
2018-08-16T08:21:20.624Z,1010.44
2018-08-16T08:26:16.723Z,1010.47
2018-08-16T08:31:13.447Z,1010.45
2018-08-16T08:36:11.381Z,1010.56
2018-08-16T08:41:07.271Z,1010.50
2018-08-16T08:46:03.055Z,1010.22
2018-08-16T08:50:58.323Z,1010.15
2018-08-16T08:55:53.234Z,1010.24
2018-08-16T09:00:49.781Z,1010.14
2018-08-16T09:05:44.953Z,1010.08
2018-08-16T09:10:41.422Z,1010.10
2018-08-16T09:15:36.716Z,1009.99
2018-08-16T09:20:33.539Z,1010.02
2018-08-16T09:25:28.822Z,1009.95
2018-08-16T09:30:24.772Z,1009.95
2018-08-16T09:35:21.944Z,1009.86
2018-08-16T09:40:18.149Z,1010.07
2018-08-16T09:45:16.046Z,1010.05
2018-08-16T09:50:13.391Z,1010.08
2018-08-16T09:55:11.010Z,1010.00
2018-08-16T10:00:07.169Z,1009.81
2018-08-16T10:05:04.470Z,1009.89
2018-08-16T10:10:00.612Z,1009.69
2018-08-16T10:14:58.201Z,1009.64
2018-08-16T10:19:54.496Z,1009.50
2018-08-16T10:24:51.782Z,1009.48
2018-08-16T10:29:47.958Z,1009.50
2018-08-16T10:34:44.673Z,1009.48
2018-08-16T10:39:42.342Z,1009.34
2018-08-16T10:44:39.462Z,1009.38
2018-08-16T10:49:35.157Z,1009.30
2018-08-16T10:54:31.666Z,1009.36
2018-08-16T10:59:27.994Z,1009.30
2018-08-16T11:04:25.644Z,1009.18
2018-08-16T11:09:22.294Z,1009.25
2018-08-16T11:14:18.461Z,1009.12
2018-08-16T11:19:14.955Z,1009.02
2018-08-16T11:24:11.337Z,1009.11
2018-08-16T11:29:07.638Z,1008.98
2018-08-16T11:34:03.894Z,1009.01
2018-08-16T11:39:00.213Z,1009.07
2018-08-16T11:43:56.642Z,1009.00
2018-08-16T11:48:52.766Z,1008.99
2018-08-16T11:53:49.975Z,1008.87
2018-08-16T11:58:46.355Z,1008.74
2018-08-16T12:03:42.848Z,1008.78
2018-08-16T12:08:39.183Z,1008.74
2018-08-16T12:13:35.566Z,1008.61
2018-08-16T12:18:31.656Z,1008.65
2018-08-16T12:23:25.869Z,1008.68
2018-08-16T12:28:21.614Z,1008.55
2018-08-16T12:33:17.233Z,1008.63
2018-08-16T12:38:12.796Z,1008.51
2018-08-16T12:43:07.183Z,1008.46
2018-08-16T12:48:03.671Z,1008.45
2018-08-16T12:52:59.464Z,1008.40
2018-08-16T12:57:55.127Z,1008.28
2018-08-16T13:02:52.371Z,1008.23
2018-08-16T13:07:48.210Z,1008.24
2018-08-16T13:12:44.787Z,1008.15
2018-08-16T13:17:41.383Z,1008.12
2018-08-16T13:22:37.580Z,1008.17
2018-08-16T13:27:33.596Z,1008.11
2018-08-16T13:32:29.629Z,1008.08
2018-08-16T13:37:25.827Z,1007.96
2018-08-16T13:42:22.932Z,1008.07
2018-08-16T13:47:18.515Z,1007.98
2018-08-16T13:52:15.068Z,1007.96
2018-08-16T13:57:10.264Z,1007.96
2018-08-16T14:02:05.941Z,1007.96
2018-08-16T14:07:01.613Z,1007.86
2018-08-16T14:11:57.595Z,1007.86
2018-08-16T14:16:53.372Z,1007.72
2018-08-16T14:21:49.116Z,1007.74
2018-08-16T14:26:44.933Z,1007.67
2018-08-16T14:31:41.152Z,1007.67
2018-08-16T14:36:38.623Z,1007.73
2018-08-16T14:41:34.379Z,1007.62
2018-08-16T14:46:30.289Z,1007.66
2018-08-16T14:51:26.171Z,1007.79
2018-08-16T14:56:22.010Z,1007.70
2018-08-16T15:01:18.879Z,1007.68
2018-08-16T15:06:14.513Z,1007.70
2018-08-16T15:11:11.522Z,1007.70
2018-08-16T15:16:07.629Z,1007.63
2018-08-16T15:21:03.726Z,1007.50
2018-08-16T15:25:59.655Z,1007.56
2018-08-16T15:30:55.997Z,1007.57
2018-08-16T15:35:51.915Z,1007.58
2018-08-16T15:40:48.920Z,1007.54
2018-08-16T15:45:44.956Z,1007.55
2018-08-16T15:50:40.975Z,1007.55
2018-08-16T15:55:36.759Z,1007.51
2018-08-16T16:00:33.726Z,1007.57
2018-08-16T16:05:29.344Z,1007.54
2018-08-16T16:10:25.236Z,1007.52
2018-08-16T16:15:21.304Z,1007.58
2018-08-16T16:20:17.244Z,1007.56
2018-08-16T16:25:13.039Z,1007.52
2018-08-16T16:30:09.063Z,1007.47
2018-08-16T16:35:04.959Z,1007.44
2018-08-16T16:40:00.703Z,1007.42
2018-08-16T16:44:56.553Z,1007.34
2018-08-16T16:49:52.757Z,1007.49
2018-08-16T16:54:48.976Z,1007.39
2018-08-16T16:59:45.172Z,1007.37
2018-08-16T17:04:42.295Z,1007.47
2018-08-16T17:09:37.961Z,1007.37
2018-08-16T17:14:34.798Z,1007.39
2018-08-16T17:19:31.642Z,1007.49
2018-08-16T17:24:27.192Z,1007.46
2018-08-16T17:29:22.988Z,1007.51
2018-08-16T17:34:18.731Z,1007.49
2018-08-16T17:39:14.693Z,1007.47
2018-08-16T17:44:11.398Z,1007.49
2018-08-16T17:49:06.966Z,1007.57
2018-08-16T17:54:02.833Z,1007.59
2018-08-16T17:58:58.574Z,1007.60
2018-08-16T18:03:54.384Z,1007.58
2018-08-16T18:08:50.223Z,1007.62
2018-08-16T18:13:46.001Z,1007.67
2018-08-16T18:18:43.260Z,1007.73
2018-08-16T18:23:39.892Z,1007.75
2018-08-16T18:28:35.536Z,1007.79
2018-08-16T18:33:31.222Z,1007.89
2018-08-16T18:38:27.011Z,1007.85
2018-08-16T18:43:23.841Z,1007.85
2018-08-16T18:48:19.325Z,1007.94
2018-08-16T18:53:15.191Z,1007.91
2018-08-16T18:58:12.184Z,1008.07
2018-08-16T19:03:08.204Z,1008.12
2018-08-16T19:08:05.023Z,1008.16
2018-08-16T19:13:00.722Z,1008.13
2018-08-16T19:17:57.845Z,1008.08
2018-08-16T19:22:53.266Z,1008.13
2018-08-16T19:27:48.857Z,1008.12
2018-08-16T19:32:44.968Z,1008.21
2018-08-16T19:37:40.840Z,1008.15
2018-08-16T19:42:36.706Z,1008.18
2018-08-16T19:47:32.522Z,1008.20
2018-08-16T19:52:28.271Z,1008.13
2018-08-16T19:57:24.430Z,1008.14
2018-08-16T20:02:20.118Z,1008.07
2018-08-16T20:07:15.993Z,1007.99
2018-08-16T20:12:12.793Z,1007.95
2018-08-16T20:17:08.315Z,1007.88
2018-08-16T20:22:04.429Z,1007.87
2018-08-16T20:27:00.327Z,1007.89
2018-08-16T20:31:57.296Z,1007.96
2018-08-16T20:36:53.815Z,1008.05
2018-08-16T20:41:49.528Z,1008.12
2018-08-16T20:46:46.703Z,1008.11
2018-08-16T20:51:43.382Z,1008.13
2018-08-16T20:56:38.972Z,1008.17
2018-08-16T21:01:34.700Z,1008.11
2018-08-16T21:06:30.723Z,1008.21
2018-08-16T21:11:27.990Z,1008.21
2018-08-16T21:16:23.617Z,1008.23
2018-08-16T21:21:19.695Z,1008.24
2018-08-16T21:26:16.537Z,1008.19
2018-08-16T21:31:12.075Z,1008.26
2018-08-16T21:36:07.973Z,1008.23
2018-08-16T21:41:04.627Z,1008.28
2018-08-16T21:46:00.107Z,1008.25
2018-08-16T21:50:56.097Z,1008.38
2018-08-16T21:55:51.776Z,1008.41
2018-08-16T22:00:47.508Z,1008.41
2018-08-16T22:05:43.486Z,1008.44
2018-08-16T22:10:41.348Z,1008.47
2018-08-16T22:15:37.505Z,1008.49
2018-08-16T22:20:34.255Z,1008.49
2018-08-16T22:25:29.801Z,1008.43
2018-08-16T22:30:25.961Z,1008.41
2018-08-16T22:35:21.887Z,1008.48
2018-08-16T22:40:17.689Z,1008.47
2018-08-16T22:45:13.357Z,1008.41
2018-08-16T22:50:09.063Z,1008.47
2018-08-16T22:55:04.808Z,1008.35
2018-08-16T23:00:00.690Z,1008.31
2018-08-16T23:04:56.259Z,1008.26
2018-08-16T23:09:51.919Z,1008.18
2018-08-16T23:14:47.973Z,1008.07
2018-08-16T23:19:43.855Z,1008.22
2018-08-16T23:24:39.770Z,1008.25
2018-08-16T23:29:35.748Z,1008.16
2018-08-16T23:34:32.323Z,1007.98
2018-08-16T23:39:28.136Z,1008.12
2018-08-16T23:44:23.889Z,1008.10
2018-08-16T23:49:20.602Z,1008.04
2018-08-16T23:54:17.254Z,1008.06
2018-08-16T23:59:13.916Z,1007.99
